Time;durP1;ratioP1;P1;durP2;ratioP2;P2;SDS_P1;SDS_P2;PMS_P1;PMS_P2;Temp;Humidity;BMP_temperature;BMP_pressure;BME280_temperature;BME280_humidity;BME280_pressure;Samples;Min_cycle;Max_cycle;Signal;HPM_P1;HPM_P2
2024/03/08 00:02:54;;;;;;;3.90;2.38;;;;;;;10.06;73.06;100345.00;5015449;28;20057;-80
2024/03/08 00:05:58;;;;;;;3.85;1.70;;;;;;;10.08;73.21;100351.06;4992251;28;20057;-80
2024/03/08 00:09:02;;;;;;;4.38;1.50;;;;;;;9.98;73.46;100342.09;5014571;28;20049;-79
2024/03/08 00:12:06;;;;;;;2.92;1.60;;;;;;;9.89;73.52;100346.44;5002578;28;20386;-78
2024/03/08 00:15:14;;;;;;;5.22;2.05;;;;;;;10.10;72.69;100341.91;5003291;28;20472;-79
2024/03/08 00:18:18;;;;;;;3.38;1.70;;;;;;;10.15;72.39;100345.09;5015191;28;20072;-79
2024/03/08 00:21:22;;;;;;;6.72;1.88;;;;;;;10.25;72.02;100351.34;5015216;28;20378;-78
2024/03/08 00:24:28;;;;;;;3.15;1.90;;;;;;;10.21;71.77;100343.72;5003355;28;20053;-81
2024/03/08 00:27:33;;;;;;;5.05;2.30;;;;;;;10.14;72.00;100343.41;5015048;28;20049;-80
2024/03/08 00:30:37;;;;;;;3.60;1.92;;;;;;;10.17;71.81;100344.97;5014941;28;20585;-78
2024/03/08 00:33:41;;;;;;;3.97;1.80;;;;;;;10.05;72.17;100351.34;5014174;28;20065;-79
2024/03/08 00:36:47;;;;;;;6.45;2.20;;;;;;;10.05;72.65;100346.81;5015071;28;20381;-80
2024/03/08 00:39:52;;;;;;;4.63;1.80;;;;;;;10.21;72.08;100338.34;5014889;28;20057;-79
2024/03/08 00:42:57;;;;;;;9.23;2.00;;;;;;;10.48;70.97;100332.41;5014990;28;20045;-78
2024/03/08 00:46:02;;;;;;;4.00;1.60;;;;;;;10.70;70.21;100335.75;5014853;28;20053;-79
2024/03/08 00:49:07;;;;;;;3.45;1.80;;;;;;;10.69;70.23;100335.91;5015043;28;20053;-77
2024/03/08 00:52:11;;;;;;;3.47;1.80;;;;;;;10.38;70.17;100337.72;5014661;28;20065;-78
2024/03/08 00:55:17;;;;;;;3.88;1.70;;;;;;;10.19;70.88;100340.31;5014765;28;20045;-77
2024/03/08 00:58:23;;;;;;;4.40;1.50;;;;;;;10.33;70.56;100339.97;5014749;28;20057;-78
2024/03/08 01:01:28;;;;;;;6.05;1.65;;;;;;;10.45;70.21;100338.88;5014772;28;20052;-78
2024/03/08 01:04:33;;;;;;;5.75;1.70;;;;;;;10.55;69.66;100342.47;5013631;28;20053;-79
2024/03/08 01:07:37;;;;;;;5.32;1.60;;;;;;;10.71;69.29;100336.59;5013885;28;20069;-78
2024/03/08 01:10:41;;;;;;;3.90;1.55;;;;;;;10.83;68.62;100341.75;5002158;28;20065;-78
2024/03/08 01:13:47;;;;;;;4.38;1.60;;;;;;;10.85;68.19;100344.28;5014569;28;20481;-79
2024/03/08 01:16:51;;;;;;;4.28;2.80;;;;;;;10.85;68.27;100345.13;5013564;28;20069;-76
2024/03/08 01:19:55;;;;;;;4.18;2.00;;;;;;;10.92;68.53;100346.28;5014414;28;20053;-79
2024/03/08 01:22:59;;;;;;;6.25;2.47;;;;;;;10.83;69.52;100336.38;5013359;28;20053;-78
2024/03/08 01:26:04;;;;;;;4.70;2.70;;;;;;;10.67;70.33;100337.84;5014223;28;20381;-79
2024/03/08 01:29:08;;;;;;;6.15;3.05;;;;;;;10.51;72.04;100346.41;5002549;28;20048;-79
2024/03/08 01:32:14;;;;;;;4.88;2.72;;;;;;;10.52;71.21;100337.38;4991282;28;20057;-79
2024/03/08 01:35:19;;;;;;;4.68;2.60;;;;;;;10.42;72.36;100325.72;5014071;28;20073;-79
2024/03/08 01:38:24;;;;;;;6.97;2.65;;;;;;;10.43;72.53;100330.13;5014273;28;20060;-78
2024/03/08 01:41:29;;;;;;;8.02;3.30;;;;;;;10.56;72.06;100338.81;5002272;28;20397;-79
2024/03/08 01:44:34;;;;;;;6.47;3.13;;;;;;;10.49;72.56;100331.44;5014067;28;20072;-78
2024/03/08 01:47:38;;;;;;;9.35;4.00;;;;;;;10.38;73.73;100337.72;5013388;28;20045;-79
2024/03/08 01:50:44;;;;;;;7.22;4.25;;;;;;;10.29;74.09;100333.19;5013987;28;20057;-79
2024/03/08 01:53:49;;;;;;;7.05;4.07;;;;;;;10.34;74.62;100334.44;5014004;28;20057;-81
2024/03/08 01:56:53;;;;;;;6.60;4.00;;;;;;;10.44;74.26;100329.97;5014019;28;20049;-78
2024/03/08 01:59:58;;;;;;;9.02;5.47;;;;;;;10.44;74.62;100324.63;5013452;28;20049;-79
2024/03/08 02:03:03;;;;;;;12.25;6.65;;;;;;;10.39;74.75;100328.72;5013919;28;20516;-80
2024/03/08 02:06:10;;;;;;;13.02;7.75;;;;;;;10.40;75.77;100319.66;5001955;28;20458;-79
2024/03/08 02:09:14;;;;;;;14.63;8.55;;;;;;;10.50;77.29;100323.22;5013909;28;20041;-78
2024/03/08 02:12:20;;;;;;;18.05;8.77;;;;;;;10.43;76.60;100317.56;5001205;28;20508;-79
2024/03/08 02:15:25;;;;;;;15.13;9.13;;;;;;;10.44;76.85;100326.47;5013681;28;20045;-79
2024/03/08 02:18:32;;;;;;;14.75;9.00;;;;;;;10.45;77.13;100315.59;5013869;28;20057;-81
2024/03/08 02:21:37;;;;;;;17.90;10.85;;;;;;;10.30;79.01;100310.72;5013149;28;20049;-80
2024/03/08 02:24:42;;;;;;;17.80;11.10;;;;;;;10.15;79.92;100317.41;5012905;28;20042;-80
2024/03/08 02:27:46;;;;;;;20.20;11.50;;;;;;;9.97;81.12;100316.28;5001747;28;20050;-80
2024/03/08 02:30:51;;;;;;;17.90;10.93;;;;;;;9.90;81.56;100320.50;5013632;28;20092;-79
2024/03/08 02:33:55;;;;;;;18.23;10.48;;;;;;;9.92;81.63;100321.19;5013469;28;20492;-80
2024/03/08 02:37:00;;;;;;;16.80;9.40;;;;;;;10.20;80.17;100329.44;5013653;28;20061;-81
2024/03/08 02:40:05;;;;;;;18.08;10.25;;;;;;;10.14;79.89;100326.44;5013801;28;20042;-77
2024/03/08 02:43:10;;;;;;;15.10;10.00;;;;;;;10.20;79.27;100320.53;5012861;28;20046;-79
2024/03/08 02:46:15;;;;;;;16.17;9.07;;;;;;;9.93;79.57;100317.53;5015005;28;20377;-79
2024/03/08 02:49:20;;;;;;;16.95;9.18;;;;;;;9.91;79.05;100333.75;5005232;28;20076;-79
2024/03/08 02:52:24;;;;;;;16.95;8.55;;;;;;;10.12;78.63;100336.47;5016213;28;20049;-78
2024/03/08 02:55:29;;;;;;;25.13;9.23;;;;;;;9.82;79.08;100338.09;5017232;28;20515;-79
2024/03/08 02:58:34;;;;;;;15.23;7.10;;;;;;;9.76;78.23;100333.22;5016133;28;20388;-79
2024/03/08 03:01:38;;;;;;;13.18;6.35;;;;;;;9.61;77.20;100328.31;5004568;28;20057;-80
2024/03/08 03:04:43;;;;;;;10.80;5.20;;;;;;;9.58;77.21;100344.66;5016765;28;20061;-79
2024/03/08 03:07:48;;;;;;;9.32;4.57;;;;;;;9.53;76.09;100350.38;5017021;28;20393;-80
2024/03/08 03:10:56;;;;;;;7.10;3.22;;;;;;;9.69;75.35;100341.91;5016516;28;20052;-79
2024/03/08 03:14:00;;;;;;;8.02;3.38;;;;;;;9.65;75.36;100352.03;5017052;28;20409;-77
2024/03/08 03:17:05;;;;;;;5.45;3.45;;;;;;;9.60;74.49;100350.72;5016046;28;20060;-79
2024/03/08 03:20:12;;;;;;;5.65;3.08;;;;;;;9.65;74.46;100344.00;5015711;28;20053;-77
2024/03/08 03:23:20;;;;;;;5.65;2.70;;;;;;;9.65;74.33;100351.19;5016600;28;20049;-79
2024/03/08 03:26:24;;;;;;;7.38;2.88;;;;;;;9.65;74.53;100357.38;5016428;28;20045;-77
2024/03/08 03:29:30;;;;;;;5.78;2.95;;;;;;;9.64;73.90;100352.16;5015682;28;20096;-79
2024/03/08 03:32:46;;;;;;;4.82;2.80;;;;;;;9.55;74.46;100345.78;5016609;28;20057;-78
2024/03/08 03:35:52;;;;;;;6.35;3.03;;;;;;;9.52;74.69;100343.34;5015487;28;20061;-79
2024/03/08 03:39:16;;;;;;;3.92;2.70;;;;;;;9.59;74.51;100340.97;5016281;28;20053;-77
2024/03/08 03:42:20;;;;;;;;;;;;;;;9.53;74.25;100334.31;5016728;28;20053;-80
2024/03/08 03:45:24;;;;;;;5.07;2.60;;;;;;;9.50;73.80;100336.41;5015108;28;19921;-79
2024/03/08 03:48:28;;;;;;;8.45;3.17;;;;;;;9.51;73.59;100336.25;5016112;28;20049;-79
2024/03/08 03:51:33;;;;;;;5.65;2.75;;;;;;;9.45;73.65;100349.34;5014861;28;20056;-78
2024/03/08 03:54:37;;;;;;;8.73;2.88;;;;;;;9.18;74.40;100347.94;5016080;28;20056;-78
2024/03/08 03:57:42;;;;;;;8.07;2.15;;;;;;;9.14;74.46;100348.31;5015778;28;20057;-79
2024/03/08 04:00:46;;;;;;;4.50;2.13;;;;;;;9.12;74.21;100348.47;5016148;28;20057;-78
2024/03/08 04:03:50;;;;;;;9.88;2.05;;;;;;;9.12;73.89;100347.59;5016577;28;20076;-78
2024/03/08 04:06:55;;;;;;;7.50;2.40;;;;;;;9.10;73.59;100344.19;5015761;28;20057;-78
2024/03/08 04:10:00;;;;;;;6.50;2.22;;;;;;;9.08;73.81;100349.69;5016879;28;20056;-78
2024/03/08 04:13:09;;;;;;;3.72;2.10;;;;;;;9.13;73.08;100354.66;5016476;28;20052;-79
2024/03/08 04:16:13;;;;;;;3.63;2.00;;;;;;;9.29;73.07;100354.25;5015665;28;20057;-79
2024/03/08 04:19:19;;;;;;;3.58;2.00;;;;;;;9.43;72.18;100352.13;5003267;28;20052;-78
2024/03/08 04:22:23;;;;;;;5.07;1.92;;;;;;;9.25;72.64;100350.13;5015702;28;20057;-79
2024/03/08 04:25:27;;;;;;;4.00;2.00;;;;;;;9.18;72.63;100347.13;5003510;28;20057;-76
2024/03/08 04:28:32;;;;;;;5.35;2.08;;;;;;;9.28;72.50;100336.50;5015168;28;20060;-78
2024/03/08 04:31:37;;;;;;;8.45;2.35;;;;;;;9.07;72.89;100339.09;5015335;28;20056;-77
2024/03/08 04:34:42;;;;;;;4.90;2.10;;;;;;;8.96;73.44;100341.81;5015420;28;20053;-80
2024/03/08 04:37:46;;;;;;;5.32;2.58;;;;;;;8.92;73.53;100338.53;4992130;28;20044;-78
2024/03/08 04:40:51;;;;;;;4.10;1.90;;;;;;;8.97;73.34;100348.84;5015311;28;20389;-77
2024/03/08 04:43:57;;;;;;;6.05;2.38;;;;;;;8.70;73.12;100338.56;5015335;28;20106;-79
2024/03/08 04:47:01;;;;;;;4.13;1.77;;;;;;;8.25;75.60;100337.66;5003149;28;20503;-78
2024/03/08 04:50:06;;;;;;;4.43;1.90;;;;;;;8.53;74.01;100344.41;5015213;28;20056;-79
2024/03/08 04:53:10;;;;;;;4.13;1.80;;;;;;;8.57;73.63;100342.34;5003045;28;20053;-79
2024/03/08 04:56:15;;;;;;;4.03;1.70;;;;;;;8.58;73.98;100341.34;5015022;28;20053;-78
2024/03/08 04:59:20;;;;;;;6.40;2.25;;;;;;;8.85;72.88;100347.16;5013718;28;20053;-78
2024/03/08 05:02:24;;;;;;;6.47;2.90;;;;;;;8.55;73.78;100346.94;5014533;28;20052;-79
2024/03/08 05:05:30;;;;;;;6.57;2.55;;;;;;;8.90;73.89;100348.50;5014840;28;20508;-80
2024/03/08 05:08:34;;;;;;;6.85;3.22;;;;;;;8.85;73.71;100348.03;5013221;28;20402;-78
2024/03/08 05:11:43;;;;;;;5.72;2.85;;;;;;;9.10;73.15;100352.25;5013205;28;20061;-79
2024/03/08 05:14:49;;;;;;;7.38;4.25;;;;;;;9.13;73.68;100358.19;5014701;28;20049;-80
2024/03/08 05:17:55;;;;;;;5.80;3.45;;;;;;;9.33;73.04;100366.44;5014337;28;20060;-78
2024/03/08 05:21:00;;;;;;;8.23;3.72;;;;;;;9.26;73.05;100366.06;5014298;28;20476;-79
2024/03/08 05:24:05;;;;;;;7.32;3.40;;;;;;;9.29;73.34;100367.63;5013935;28;20049;-78
2024/03/08 05:27:09;;;;;;;6.90;3.67;;;;;;;9.36;73.38;100361.66;5002414;28;20073;-79
2024/03/08 05:30:15;;;;;;;10.35;4.57;;;;;;;9.07;74.26;100361.38;4994487;28;20054;-79
2024/03/08 05:33:19;;;;;;;10.45;4.65;;;;;;;8.63;76.98;100377.47;4982936;28;20389;-79
2024/03/08 05:36:23;;;;;;;11.85;3.75;;;;;;;8.91;75.39;100363.56;4995001;28;20485;-79
2024/03/08 05:39:28;;;;;;;7.20;3.75;;;;;;;9.22;74.64;100363.75;4994784;28;20049;-79
2024/03/08 05:42:32;;;;;;;13.73;4.20;;;;;;;9.13;74.64;100365.38;4982468;28;20374;-79
2024/03/08 05:45:37;;;;;;;10.05;4.80;;;;;;;8.99;75.49;100358.47;4995370;28;20050;-78
2024/03/08 05:48:42;;;;;;;9.85;4.30;;;;;;;8.78;76.82;100375.41;4995601;28;20481;-80
2024/03/08 05:51:47;;;;;;;8.43;4.65;;;;;;;9.15;76.49;100368.78;4993734;28;20122;-78
2024/03/08 05:54:52;;;;;;;11.60;5.28;;;;;;;9.24;76.00;100369.84;4994884;28;20049;-78
2024/03/08 05:57:56;;;;;;;16.27;7.03;;;;;;;9.24;76.78;100369.84;4994530;28;20500;-79
2024/03/08 06:01:01;;;;;;;11.77;7.00;;;;;;;9.28;76.72;100369.50;5003282;28;20056;-77
2024/03/08 06:04:05;;;;;;;12.35;6.38;;;;;;;9.31;76.92;100376.41;5015356;28;20041;-79
2024/03/08 06:07:12;;;;;;;17.42;7.13;;;;;;;9.47;76.09;100384.88;5014181;28;20045;-78
2024/03/08 06:10:17;;;;;;;15.20;6.00;;;;;;;9.54;76.12;100380.72;5013795;28;20045;-78
2024/03/08 06:13:21;;;;;;;16.65;6.50;;;;;;;9.40;75.47;100395.25;5013996;28;20072;-79
2024/03/08 06:16:30;;;;;;;13.95;5.65;;;;;;;9.45;75.96;100394.88;5014234;28;20041;-78
2024/03/08 06:19:36;;;;;;;18.33;8.35;;;;;;;9.42;76.84;100390.63;5013807;28;20065;-79
2024/03/08 06:22:44;;;;;;;16.60;7.53;;;;;;;9.62;76.49;100391.66;5018610;28;20058;-80
2024/03/08 06:25:48;;;;;;;21.85;9.93;;;;;;;9.49;78.18;100390.97;5006117;28;20393;-78
2024/03/08 06:28:55;;;;;;;24.38;9.18;;;;;;;9.42;79.83;100393.31;5018006;28;20053;-77
2024/03/08 06:32:00;;;;;;;28.17;10.63;;;;;;;9.60;79.44;100391.75;5017702;28;20488;-78
2024/03/08 06:35:06;;;;;;;33.80;13.48;;;;;;;8.95;83.66;100397.16;5005989;28;20052;-78
2024/03/08 06:38:11;;;;;;;46.05;14.55;;;;;;;9.22;84.82;100396.75;5016668;28;20057;-78
2024/03/08 06:41:16;;;;;;;30.30;15.30;;;;;;;9.06;86.84;100407.03;5017436;28;20053;-78
2024/03/08 06:44:21;;;;;;;42.03;17.08;;;;;;;9.25;87.93;100401.88;5017818;28;20076;-77
2024/03/08 06:47:26;;;;;;;38.28;16.75;;;;;;;9.52;86.10;100398.75;5023903;28;20515;-78
2024/03/08 06:50:32;;;;;;;40.30;16.27;;;;;;;9.63;87.22;100386.16;5024463;28;20042;-77
2024/03/08 06:53:38;;;;;;;35.63;17.52;;;;;;;9.84;86.59;100388.88;5026918;28;20046;-80
2024/03/08 06:56:43;;;;;;;40.58;18.92;;;;;;;10.22;86.46;100389.16;5011459;28;20041;-79
2024/03/08 06:59:48;;;;;;;35.83;18.42;;;;;;;10.10;86.35;100384.81;5013232;28;20046;-79
2024/03/08 07:02:53;;;;;;;35.03;18.60;;;;;;;10.23;86.47;100384.66;5021486;28;20042;-78
2024/03/08 07:06:02;;;;;;;34.92;18.08;;;;;;;10.78;84.61;100381.56;4996977;28;20540;-77
2024/03/08 07:09:07;;;;;;;37.45;17.00;;;;;;;10.63;84.62;100385.59;4997562;28;20034;-74
2024/03/08 07:12:13;;;;;;;37.78;16.33;;;;;;;10.63;84.02;100379.38;5004716;28;20408;-74
2024/03/08 07:15:19;;;;;;;38.13;17.35;;;;;;;10.98;82.98;100375.28;5016985;28;20050;-75
2024/03/08 07:18:24;;;;;;;32.72;17.00;;;;;;;11.28;81.21;100378.88;5004599;28;20034;-75
2024/03/08 07:21:29;;;;;;;29.73;15.82;;;;;;;11.00;81.69;100385.88;5004887;28;20050;-75
2024/03/08 07:28:15;;;;;;;43.65;22.52;;;;;;;10.83;83.13;100379.34;4974264;28;20038;-79
2024/03/08 07:31:38;;;;;;;36.28;17.25;;;;;;;10.63;84.84;100390.09;4967262;28;20055;-80
2024/03/08 07:34:42;;;;;;;33.30;18.90;;;;;;;10.69;85.64;100390.41;4967320;28;20035;-79
2024/03/08 07:37:49;;;;;;;34.17;17.67;;;;;;;10.95;83.26;100388.97;4952883;29;20462;-81
2024/03/08 07:40:54;;;;;;;32.08;19.98;;;;;;;10.82;84.65;100404.47;4953550;29;20043;-79
2024/03/08 07:44:00;;;;;;;35.75;18.13;;;;;;;11.34;82.39;100400.69;4970291;28;20434;-80
2024/03/08 07:47:07;;;;;;;33.25;18.67;;;;;;;11.22;83.06;100379.44;4991280;28;20046;-80
2024/03/08 07:50:16;;;;;;;44.38;23.73;;;;;;;11.22;83.34;100395.56;4981002;28;20046;-79
2024/03/08 07:53:20;;;;;;;35.38;19.35;;;;;;;10.86;85.35;100392.47;4987432;28;20046;-83
2024/03/08 07:56:25;;;;;;;39.85;21.13;;;;;;;10.96;85.42;100396.03;4992425;28;20497;-79
2024/03/08 07:59:30;;;;;;;37.50;19.08;;;;;;;11.49;83.74;100398.44;4983118;28;20071;-79
2024/03/08 08:02:36;;;;;;;38.25;21.63;;;;;;;11.71;83.16;100390.13;4990804;28;20050;-80
2024/03/08 08:05:42;;;;;;;32.33;18.75;;;;;;;11.82;82.09;100403.47;5006138;28;20046;-83
2024/03/08 08:08:47;;;;;;;43.58;24.70;;;;;;;11.80;83.36;100400.03;5015465;28;20397;-72
2024/03/08 08:11:52;;;;;;;32.33;20.65;;;;;;;12.17;82.55;100400.19;5014961;28;20433;-72
2024/03/08 08:14:57;;;;;;;35.50;20.00;;;;;;;12.46;80.79;100408.19;5018634;28;20461;-88
2024/03/08 08:18:03;;;;;;;33.55;20.45;;;;;;;12.49;80.20;100400.69;5017715;28;20045;-84
2024/03/08 08:21:07;;;;;;;33.20;20.38;;;;;;;11.91;80.41;100401.75;5016258;28;20054;-85
2024/03/08 08:24:12;;;;;;;36.08;19.85;;;;;;;12.06;80.41;100398.50;5025222;28;20038;-86
2024/03/08 08:27:16;;;;;;;36.13;20.17;;;;;;;12.13;80.45;100404.13;5031898;28;20037;-90
2024/03/08 08:30:21;;;;;;;32.88;18.92;;;;;;;12.45;79.74;100406.50;5041557;28;20400;-82
2024/03/08 08:33:26;;;;;;;30.73;19.00;;;;;;;12.16;80.12;100393.94;5016977;28;20045;-80
2024/03/08 08:36:31;;;;;;;32.47;19.52;;;;;;;11.95;80.95;100401.31;5005808;28;20058;-79
2024/03/08 08:39:36;;;;;;;26.30;17.65;;;;;;;12.18;80.73;100402.72;4989051;28;20481;-80
2024/03/08 08:42:41;;;;;;;31.10;18.80;;;;;;;12.58;79.26;100412.41;5028136;28;20046;-79
2024/03/08 08:45:47;;;;;;;30.17;18.33;;;;;;;12.71;78.79;100410.25;5022091;28;20034;-80
2024/03/08 08:48:52;;;;;;;31.05;18.52;;;;;;;12.40;79.85;100402.41;5032865;28;20404;-78
2024/03/08 08:51:58;;;;;;;32.38;18.95;;;;;;;12.78;78.75;100401.44;5006745;28;20042;-81
2024/03/08 08:55:04;;;;;;;30.73;18.63;;;;;;;12.55;78.60;100408.16;4982889;28;20046;-82
2024/03/08 08:58:08;;;;;;;29.00;17.70;;;;;;;12.88;78.07;100407.66;4954155;29;20537;-81
2024/03/08 09:01:15;;;;;;;29.52;18.63;;;;;;;13.19;77.17;100400.13;4954681;29;20043;-80
2024/03/08 09:04:21;;;;;;;26.58;18.05;;;;;;;12.88;77.26;100406.78;4954227;29;20039;-80
2024/03/08 09:07:27;;;;;;;28.48;18.20;;;;;;;12.81;77.98;100416.47;4955952;29;20043;-80
2024/03/08 09:10:33;;;;;;;27.92;17.80;;;;;;;13.08;77.64;100403.06;4953776;28;20487;-80
2024/03/08 09:14:01;;;;;;;27.88;17.38;;;;;;;13.19;77.10;100401.97;4944105;29;20091;-80
2024/03/08 09:17:08;;;;;;;27.40;17.67;;;;;;;12.85;78.23;100409.78;4954363;29;20051;-80
2024/03/08 09:20:17;;;;;;;29.58;18.42;;;;;;;13.22;76.62;100396.28;4953758;29;20043;-79
2024/03/08 09:23:22;;;;;;;26.77;17.17;;;;;;;13.40;75.60;100399.88;4943968;29;20438;-79
2024/03/08 09:26:26;;;;;;;30.02;18.33;;;;;;;13.34;75.18;100404.03;4953069;28;20537;-80
2024/03/08 09:29:31;;;;;;;36.63;19.10;;;;;;;13.29;76.47;100405.47;4988812;28;20046;-79
2024/03/08 09:32:36;;;;;;;34.85;19.38;;;;;;;13.25;76.85;100413.03;4992175;28;20409;-78
2024/03/08 09:35:41;;;;;;;28.70;18.08;;;;;;;13.40;76.91;100403.44;4974720;28;20051;-80
2024/03/08 09:38:47;;;;;;;25.92;18.63;;;;;;;13.19;76.82;100404.69;4974714;28;20042;-78
2024/03/08 09:41:51;;;;;;;27.30;17.20;;;;;;;13.32;76.47;100405.19;4962390;28;20042;-79
2024/03/08 09:44:56;;;;;;;24.98;16.52;;;;;;;13.52;75.95;100410.31;4974370;28;20482;-78
2024/03/08 09:48:03;;;;;;;26.52;17.20;;;;;;;13.48;75.97;100406.19;4963384;28;20058;-78
2024/03/08 09:51:08;;;;;;;28.63;18.33;;;;;;;13.38;76.23;100410.81;4975234;28;20478;-78
2024/03/08 09:54:13;;;;;;;28.98;16.75;;;;;;;13.39;77.22;100407.13;4962588;28;20039;-79
2024/03/08 09:57:18;;;;;;;30.15;18.77;;;;;;;13.47;76.71;100414.47;4962841;28;20047;-79
2024/03/08 10:00:24;;;;;;;28.67;18.15;;;;;;;13.64;76.11;100416.31;4974493;28;20046;-78
2024/03/08 10:03:30;;;;;;;28.35;18.75;;;;;;;13.40;76.43;100410.66;4975450;28;20046;-79
2024/03/08 10:06:36;;;;;;;30.10;17.88;;;;;;;13.38;76.40;100416.19;4975070;28;20482;-78
2024/03/08 10:09:47;;;;;;;33.15;19.17;;;;;;;13.34;76.96;100404.03;4963018;28;20038;-78
2024/03/08 10:12:52;;;;;;;28.50;18.38;;;;;;;13.47;76.50;100404.53;4974782;28;20050;-79
2024/03/08 10:15:56;;;;;;;31.98;18.70;;;;;;;12.96;77.87;100410.44;4974521;28;20042;-79
2024/03/08 10:19:03;;;;;;;31.25;18.02;;;;;;;13.33;77.72;100401.50;4974977;28;20043;-78
2024/03/08 10:22:15;;;;;;;30.67;19.20;;;;;;;13.57;76.82;100405.31;4975684;28;20046;-80
2024/03/08 10:25:20;;;;;;;28.08;18.70;;;;;;;13.60;76.67;100404.97;4976430;28;20039;-79
2024/03/08 10:28:25;;;;;;;28.52;18.88;;;;;;;13.27;77.91;100397.56;4985568;28;20054;-78
2024/03/08 10:31:33;;;;;;;30.92;19.15;;;;;;;13.51;76.83;100391.56;4975509;28;20043;-79
2024/03/08 10:34:39;;;;;;;26.00;18.65;;;;;;;13.22;77.81;100397.16;4974593;28;20047;-80
2024/03/08 10:37:59;;;;;;;24.38;15.50;;;;;;;13.19;78.95;100401.97;4974364;28;20211;-79
2024/03/08 10:41:11;;;;;;;23.25;15.45;;;;;;;13.11;79.84;100394.66;4976199;28;20047;-79
2024/03/08 10:44:59;;;;;;;27.42;16.20;;;;;;;12.87;80.75;100395.16;4975145;28;20047;-79
2024/03/08 10:48:31;;;;;;;25.13;16.83;;;;;;;12.97;80.28;100401.34;4969995;28;20054;-79
2024/03/08 10:51:38;;;;;;;24.50;16.60;;;;;;;12.77;80.79;100401.56;4970437;28;20051;-79
2024/03/08 10:54:45;;;;;;;28.65;18.45;;;;;;;12.70;81.11;100390.56;4972517;28;20042;-79
2024/03/08 10:57:49;;;;;;;25.83;16.63;;;;;;;12.92;80.81;100397.41;4970881;28;20047;-79
2024/03/08 11:00:57;;;;;;;26.85;17.10;;;;;;;12.91;81.00;100390.34;4960729;28;20051;-80
2024/03/08 11:04:04;;;;;;;23.42;16.50;;;;;;;13.17;80.77;100382.41;4952834;29;20051;-79
2024/03/08 11:07:17;;;;;;;25.70;17.17;;;;;;;13.27;79.68;100385.91;4961593;28;20047;-79
2024/03/08 11:10:21;;;;;;;22.88;15.82;;;;;;;13.25;78.87;100388.78;4972394;28;20038;-80
2024/03/08 11:13:40;;;;;;;19.15;14.65;;;;;;;13.52;78.12;100386.03;4974068;28;20059;-80
2024/03/08 11:16:46;;;;;;;21.77;15.40;;;;;;;13.44;78.61;100374.31;4974082;28;20082;-80
2024/03/08 11:19:52;;;;;;;23.75;14.55;;;;;;;13.73;78.04;100384.91;4974592;28;20047;-81
2024/03/08 11:23:03;;;;;;;20.55;15.02;;;;;;;13.75;78.38;100377.50;4973393;28;20538;-80
2024/03/08 11:26:18;;;;;;;21.98;14.30;;;;;;;13.99;77.74;100377.72;4994223;28;20390;-79
2024/03/08 11:29:35;;;;;;;20.13;14.00;;;;;;;14.46;76.17;100365.63;4995683;28;20034;-80
2024/03/08 11:32:45;;;;;;;17.05;12.48;;;;;;;14.11;76.43;100368.34;4995286;28;20047;-80
2024/03/08 11:35:49;;;;;;;17.35;12.65;;;;;;;14.11;76.57;100361.13;4996639;28;20042;-81
2024/03/08 11:38:57;;;;;;;17.35;11.82;;;;;;;14.18;76.46;100361.31;4995926;28;20481;-81
2024/03/08 11:42:03;;;;;;;21.20;14.23;;;;;;;14.10;76.76;100358.56;4994962;28;20054;-80
2024/03/08 11:45:11;;;;;;;20.83;14.40;;;;;;;13.69;78.08;100351.97;4996444;28;20046;-79
2024/03/08 11:48:15;;;;;;;20.08;15.25;;;;;;;13.30;79.33;100358.66;4993038;28;20046;-80
2024/03/08 11:51:20;;;;;;;20.85;15.30;;;;;;;13.22;80.64;100354.03;4994833;28;20042;-79
2024/03/08 11:54:24;;;;;;;23.45;14.88;;;;;;;13.20;80.99;100356.03;4984136;28;20062;-79
2024/03/08 11:57:29;;;;;;;19.50;13.70;;;;;;;13.83;78.27;100347.88;4993759;28;20046;-79
2024/03/08 12:00:38;;;;;;;24.05;16.52;;;;;;;13.70;79.69;100334.81;4984346;28;20410;-80
2024/03/08 12:03:42;;;;;;;19.83;14.40;;;;;;;14.01;78.38;100338.75;4983316;28;20050;-79
2024/03/08 12:06:47;;;;;;;16.17;12.27;;;;;;;14.07;77.87;100334.59;4994506;28;20054;-80
2024/03/08 12:10:18;;;;;;;22.40;13.07;;;;;;;14.24;77.47;100333.72;4995765;28;20465;-81
2024/03/08 12:13:23;;;;;;;16.60;11.43;;;;;;;14.21;77.01;100328.63;4982396;28;20501;-80
2024/03/08 12:16:28;;;;;;;17.85;11.02;;;;;;;14.12;77.23;100316.09;4994798;28;20042;-81
2024/03/08 12:19:33;;;;;;;15.15;10.68;;;;;;;14.10;77.57;100312.66;4983779;28;20046;-82
2024/03/08 12:22:41;;;;;;;16.55;11.38;;;;;;;13.98;78.17;100313.94;4962995;28;20047;-82
2024/03/08 12:25:47;;;;;;;14.02;10.68;;;;;;;13.66;79.75;100315.38;4976048;28;20470;-77
2024/03/08 12:28:53;;;;;;;12.70;9.52;;;;;;;14.10;77.70;100309.97;4993582;28;20043;-83
2024/03/08 12:32:00;;;;;;;22.27;15.13;;;;;;;13.86;78.63;100307.94;4994262;28;20038;-88
2024/03/08 12:35:10;;;;;;;14.05;11.35;;;;;;;13.99;78.73;100291.34;4994320;28;20042;-79
2024/03/08 12:38:15;;;;;;;14.85;11.20;;;;;;;14.11;78.29;100290.06;4962194;28;20050;-80
2024/03/08 12:41:21;;;;;;;14.15;10.75;;;;;;;14.49;77.32;100283.41;4960715;28;20046;-79
2024/03/08 12:44:26;;;;;;;13.48;10.45;;;;;;;15.03;75.38;100272.16;4975073;28;20043;-78
2024/03/08 12:47:31;;;;;;;17.65;11.30;;;;;;;14.94;74.86;100283.94;4975447;28;20039;-79
2024/03/08 12:50:35;;;;;;;13.90;10.68;;;;;;;15.05;74.01;100285.47;4976254;28;20398;-79
2024/03/08 12:53:40;;;;;;;13.65;10.52;;;;;;;14.82;74.90;100280.69;4976148;28;20051;-78
2024/03/08 12:56:45;;;;;;;11.60;9.55;;;;;;;14.79;74.78;100281.00;4975323;28;20382;-78
2024/03/08 12:59:53;;;;;;;15.27;9.73;;;;;;;14.91;74.53;100274.28;4976242;28;20407;-77
2024/03/08 13:02:59;;;;;;;12.23;9.45;;;;;;;14.53;76.24;100269.44;4975924;28;20521;-77
2024/03/08 13:06:08;;;;;;;13.10;9.32;;;;;;;14.55;75.93;100278.22;4976130;28;20418;-78
2024/03/08 13:09:12;;;;;;;10.93;8.75;;;;;;;14.89;74.93;100270.91;4976297;28;20410;-77
2024/03/08 13:12:16;;;;;;;10.82;8.63;;;;;;;14.88;74.92;100274.63;5003340;28;20049;-77
2024/03/08 13:15:21;;;;;;;14.68;9.52;;;;;;;15.13;73.53;100274.69;5005726;28;20038;-78
2024/03/08 13:18:25;;;;;;;12.57;8.93;;;;;;;15.09;73.95;100265.22;4995258;28;20085;-78
2024/03/08 13:21:31;;;;;;;12.25;8.65;;;;;;;15.14;73.97;100257.44;4995137;28;20496;-77
2024/03/08 13:24:36;;;;;;;14.43;7.88;;;;;;;14.69;75.81;100250.56;4995120;28;20061;-77
2024/03/08 13:27:45;;;;;;;10.10;7.40;;;;;;;14.71;77.08;100229.66;4994296;28;20042;-77
2024/03/08 13:30:50;;;;;;;11.23;7.45;;;;;;;14.61;77.49;100223.56;4994472;28;20050;-77
2024/03/08 13:33:57;;;;;;;12.30;7.95;;;;;;;14.19;78.73;100217.25;4983305;28;20057;-78
2024/03/08 13:37:03;;;;;;;13.95;7.88;;;;;;;14.08;78.91;100209.41;4994067;28;20057;-83
2024/03/08 13:40:13;;;;;;;12.90;7.95;;;;;;;13.72;79.91;100210.56;5006357;28;20049;-84
2024/03/08 13:43:18;;;;;;;11.32;7.28;;;;;;;14.00;79.03;100206.69;5002059;28;20049;-79
2024/03/08 13:46:24;;;;;;;10.30;7.47;;;;;;;13.75;80.04;100218.34;5000788;28;20504;-80
2024/03/08 13:49:29;;;;;;;12.88;7.72;;;;;;;13.74;80.15;100205.84;5012770;28;20049;-79
2024/03/08 13:52:34;;;;;;;13.45;8.63;;;;;;;13.79;80.40;100206.22;5011734;28;20046;-81
2024/03/08 13:55:40;;;;;;;11.02;8.45;;;;;;;13.67;81.08;100208.34;5012308;28;20048;-82
2024/03/08 13:58:45;;;;;;;12.25;7.63;;;;;;;13.68;80.43;100205.47;5012778;28;20096;-79
2024/03/08 14:01:50;;;;;;;11.25;7.55;;;;;;;13.64;80.59;100216.72;5011972;28;20476;-80
2024/03/08 14:04:54;;;;;;;13.80;8.13;;;;;;;13.56;80.44;100209.44;5012902;28;20477;-79
2024/03/08 14:08:00;;;;;;;12.32;8.18;;;;;;;13.56;81.69;100217.50;5013419;28;20421;-79
2024/03/08 14:11:12;;;;;;;12.35;8.00;;;;;;;13.29;82.54;100214.94;5005518;28;20053;-78
2024/03/08 14:14:17;;;;;;;11.38;8.68;;;;;;;13.56;81.93;100209.44;4993091;28;20042;-79
2024/03/08 14:17:23;;;;;;;15.77;9.48;;;;;;;13.43;81.97;100211.66;4992633;28;20051;-80
2024/03/08 14:20:28;;;;;;;12.38;8.43;;;;;;;13.67;80.79;100203.78;4996349;28;20047;-80
2024/03/08 14:23:33;;;;;;;13.77;9.23;;;;;;;13.52;80.95;100207.19;4993593;28;20050;-79